This is the latest recevied weather packets stored in our database for station/object KC3QJO. If no packets are shown the sender has not sent any weather packets the latest 10 day(s).
| Time | Temp. | Humidity | Pressure | Rain* | Wind** | Luminosity | Snow |
|---|---|---|---|---|---|---|---|
| 1778210754 | 11.11° C | 53% | 1008.1 hPa | 0 mm | - | 0 W/m² | - |
| 1778209557 | 11.67° C | 50% | 1008.2 hPa | 0 mm | - | 0 W/m² | - |
| 1778207752 | 11.67° C | 49% | 1008.2 hPa | 0 mm | - | 0 W/m² | - |
| 1778205952 | 12.22° C | 48% | 1008.1 hPa | 0 mm | - | 0 W/m² | - |
| 1778204753 | 12.22° C | 47% | 1008.1 hPa | 0 mm | - | 0 W/m² | - |
| 1778204152 | 12.22° C | 46% | 1008 hPa | 0 mm | - | 0 W/m² | - |
| 1778197251 | 14.44° C | 39% | 1007.1 hPa | 0 mm | - | 18 W/m² | - |
| 1778196953 | 14.44° C | 39% | 1007.1 hPa | 0 mm | - | 21 W/m² | - |
| 1778196051 | 15° C | 38% | 1006.9 hPa | 0 mm | - | 28 W/m² | - |
| 1778194554 | 15° C | 37% | 1006.8 hPa | 0 mm | - | 42 W/m² | - |
| 1778194252 | 15° C | 38% | 1006.8 hPa | 0 mm | - | 51 W/m² | - |
| 1778192755 | 15.56° C | 38% | 1006.9 hPa | 0 mm | - | 90 W/m² | - |
| 1778192451 | 15.56° C | 36% | 1006.8 hPa | 0 mm | - | 134 W/m² | - |
| 1778191852 | 16.11° C | 36% | 1006.8 hPa | 0 mm | - | 109 W/m² | - |
| 1778184960 | 15.56° C | 37% | 1006.8 hPa | 0 mm | - | 153 W/m² | - |
| 1778184654 | 15.56° C | 37% | 1006.9 hPa | 0 mm | - | 137 W/m² | - |
| 1778184352 | 16.11° C | 37% | 1006.9 hPa | 0 mm | - | 121 W/m² | - |
| 1778181954 | 15.56° C | 35% | 1007.3 hPa | 0 mm | - | 754 W/m² | - |
| 1778181358 | 16.11° C | 36% | 1007.4 hPa | 0 mm | - | 784 W/m² | - |
| 1778180753 | 16.67° C | 34% | 1007.4 hPa | 0 mm | - | 186 W/m² | - |
| 1778178955 | 17.78° C | 34% | 1007.8 hPa | 0 mm | - | 805 W/m² | - |
| 1778178661 | 17.22° C | 34% | 1007.7 hPa | 0 mm | - | 814 W/m² | - |
| 1778177153 | 16.67° C | 35% | 1007.9 hPa | 0 mm | - | 891 W/m² | - |
| 1778176551 | 16.67° C | 33% | 1008.1 hPa | 0 mm | - | 858 W/m² | - |
| 1778174752 | 15.56° C | 33% | 1008.7 hPa | 0 mm | - | 828 W/m² | - |
* Rain latest hour (hover to see other rain measurements)
** Current wind speed in m/s (hover to see current wind gust speed)